KMHR/MHR METAR and TAF weather

Enter ICAO airport designator
Station Type Date Time Source
KMHR METAR 2020/06/05 23:51 UTC NOAA

KMHR 052351Z 1918KT 10SM SKC 24/08 A2970


Station Type Date Time Source
KMHR Decoded METAR 2020/06/05 23:51 UTC NOAA

Sacramento, Sacramento Mather Airport, CA, United States (KMHR) 38-33N 121-18W
Jun 05, 2020 - 07:51 PM EDT / 2020.06.05 2351 UTC
Visibility: 10 mile(s):0
Sky conditions: clear
Temperature: 75 F (24 C)
Dew Point: 46 F (8 C)
Relative Humidity: 35%
Pressure (altimeter): 29.7 in. Hg (1005 hPa)
ob: KMHR 052351Z 1918KT 10SM SKC 24/08 A2970
cycle: 0

Station Type Date Time Source
KMHR TAF 2020/06/05 18:36 UTC NOAA

TAF KMHR 051734Z 0518/0618 20015G21KT P6SM SKC
FM060600 15013KT P6SM BKN100

Example: see airport list